createdAt,value
2022-12-25T00:01:22.405Z,84.82
2022-12-25T00:03:49.910Z,84.81
2022-12-25T00:06:16.570Z,84.79
2022-12-25T00:08:43.376Z,84.47
2022-12-25T00:11:15.551Z,84.55
2022-12-25T00:13:42.749Z,84.37
2022-12-25T00:16:14.708Z,84.91
2022-12-25T00:18:41.236Z,84.83
2022-12-25T00:21:07.899Z,84.53
2022-12-25T00:23:35.151Z,84.86
2022-12-25T00:26:07.047Z,85.10
2022-12-25T00:28:33.542Z,84.68
2022-12-25T00:31:00.019Z,83.80
2022-12-25T00:33:26.530Z,84.59
2022-12-25T00:36:00.732Z,84.61
2022-12-25T00:38:27.844Z,84.61
2022-12-25T00:40:54.404Z,84.87
2022-12-25T00:43:21.172Z,84.12
2022-12-25T00:45:58.666Z,83.35
2022-12-25T00:48:26.164Z,82.92
2022-12-25T00:51:01.378Z,82.57
2022-12-25T00:53:28.973Z,82.66
2022-12-25T00:55:58.020Z,82.39
2022-12-25T00:58:29.080Z,81.73
2022-12-25T01:00:56.190Z,82.35
2022-12-25T01:03:22.980Z,82.11
2022-12-25T01:06:01.511Z,82.30
2022-12-25T01:08:30.348Z,82.13
2022-12-25T01:11:03.959Z,82.31
2022-12-25T01:13:31.766Z,82.58
2022-12-25T01:15:58.409Z,82.73
2022-12-25T01:18:25.283Z,82.60
2022-12-25T01:20:51.784Z,81.94
2022-12-25T01:23:18.241Z,81.69
2022-12-25T01:25:45.413Z,82.71
2022-12-25T01:28:12.056Z,83.39
2022-12-25T01:30:39.576Z,83.54
2022-12-25T01:33:06.093Z,82.95
2022-12-25T01:35:32.525Z,82.78
2022-12-25T01:37:58.967Z,82.79
2022-12-25T01:40:25.398Z,82.89
2022-12-25T01:42:51.895Z,82.38
2022-12-25T01:45:34.106Z,82.50
2022-12-25T01:48:04.602Z,82.17
2022-12-25T01:50:31.167Z,82.39
2022-12-25T01:52:58.200Z,82.87
2022-12-25T01:55:25.474Z,82.87
2022-12-25T01:57:52.128Z,82.63
2022-12-25T02:00:18.591Z,82.48
2022-12-25T02:02:45.740Z,82.34
2022-12-25T02:05:20.327Z,81.99
2022-12-25T02:07:48.253Z,81.63
2022-12-25T02:10:14.981Z,82.06
2022-12-25T02:12:41.712Z,82.20
2022-12-25T02:15:12.225Z,82.15
2022-12-25T02:18:08.688Z,81.97
2022-12-25T02:20:46.733Z,81.88
2022-12-25T02:23:27.647Z,81.62
2022-12-25T02:26:21.649Z,81.70
2022-12-25T02:29:05.595Z,81.49
2022-12-25T02:31:45.797Z,82.04
2022-12-25T02:34:25.832Z,82.31
2022-12-25T02:37:05.862Z,83.97
2022-12-25T02:40:00.608Z,83.45
2022-12-25T02:42:57.320Z,82.89
2022-12-25T02:46:05.395Z,82.74
2022-12-25T02:48:53.789Z,82.08
2022-12-25T02:51:41.571Z,82.12
2022-12-25T02:54:30.608Z,82.45
2022-12-25T02:57:18.362Z,82.57
2022-12-25T03:00:07.081Z,82.14
2022-12-25T03:02:52.455Z,82.46
2022-12-25T03:05:42.411Z,82.49
2022-12-25T03:08:13.677Z,82.04
2022-12-25T03:11:03.783Z,81.94
2022-12-25T03:13:36.986Z,82.98
2022-12-25T03:16:22.187Z,82.89
2022-12-25T03:18:48.630Z,82.65
2022-12-25T03:21:33.490Z,82.97
2022-12-25T03:24:19.851Z,82.50
2022-12-25T03:26:55.068Z,82.11
2022-12-25T03:29:48.798Z,82.38
2022-12-25T03:32:37.367Z,81.85
2022-12-25T03:35:25.574Z,82.35
2022-12-25T03:38:41.799Z,82.20
2022-12-25T03:41:40.897Z,81.71
2022-12-25T03:44:44.551Z,81.58
2022-12-25T03:47:37.498Z,82.12
2022-12-25T03:50:51.649Z,81.30
2022-12-25T03:53:45.620Z,81.82
2022-12-25T03:56:31.870Z,81.60
2022-12-25T03:59:23.285Z,81.62
2022-12-25T04:02:10.295Z,81.79
2022-12-25T04:04:55.732Z,82.21
2022-12-25T04:07:40.596Z,82.26
2022-12-25T04:10:26.525Z,81.38
2022-12-25T04:13:11.561Z,81.80
2022-12-25T04:15:56.423Z,82.41
2022-12-25T04:18:42.624Z,82.14
2022-12-25T04:21:27.831Z,82.08
2022-12-25T04:24:12.653Z,82.15
2022-12-25T04:26:57.798Z,83.14
2022-12-25T04:29:42.642Z,83.52
2022-12-25T04:32:27.433Z,83.65
2022-12-25T04:35:12.334Z,83.71
2022-12-25T04:37:38.746Z,83.80
2022-12-25T04:40:05.868Z,84.09
2022-12-25T04:42:32.330Z,83.41
2022-12-25T04:44:58.730Z,83.99
2022-12-25T04:47:25.188Z,84.08
2022-12-25T04:49:51.649Z,83.39
2022-12-25T04:52:18.051Z,83.42
2022-12-25T04:54:44.495Z,83.59
2022-12-25T04:57:10.896Z,83.75
2022-12-25T04:59:37.318Z,83.53
2022-12-25T05:02:03.859Z,83.29
2022-12-25T05:04:30.367Z,83.34
2022-12-25T05:06:56.764Z,83.57
2022-12-25T05:09:23.189Z,83.82
2022-12-25T05:11:49.689Z,84.02
2022-12-25T05:14:16.100Z,83.98
2022-12-25T05:16:42.710Z,84.22
2022-12-25T05:19:09.750Z,83.90
2022-12-25T05:21:36.401Z,83.81
2022-12-25T05:24:02.853Z,83.94
2022-12-25T05:26:29.239Z,84.06
2022-12-25T05:28:56.529Z,83.75
2022-12-25T05:31:23.015Z,83.81
2022-12-25T05:33:51.394Z,84.00
2022-12-25T05:36:18.101Z,84.48
2022-12-25T05:38:44.509Z,84.92
2022-12-25T05:41:10.942Z,85.44
2022-12-25T05:43:37.380Z,84.75
2022-12-25T05:46:06.686Z,85.38
2022-12-25T05:48:34.978Z,84.47
2022-12-25T05:51:09.865Z,84.79
2022-12-25T05:53:36.657Z,85.38
2022-12-25T05:56:04.875Z,84.86
2022-12-25T05:58:32.838Z,85.20
2022-12-25T06:00:59.639Z,84.29
2022-12-25T06:03:26.205Z,84.53
2022-12-25T06:05:52.939Z,84.39
2022-12-25T06:08:20.035Z,84.40
2022-12-25T06:10:46.971Z,84.20
2022-12-25T06:13:13.560Z,84.70
2022-12-25T06:15:41.177Z,84.68
2022-12-25T06:18:07.971Z,85.04
2022-12-25T06:20:34.472Z,84.45
2022-12-25T06:23:01.157Z,84.61
2022-12-25T06:25:27.698Z,84.46
2022-12-25T06:27:54.110Z,84.61
2022-12-25T06:30:20.573Z,84.34
2022-12-25T06:32:46.975Z,84.54
2022-12-25T06:35:13.376Z,83.79
2022-12-25T06:37:39.804Z,83.78
2022-12-25T06:40:06.827Z,84.99
2022-12-25T06:42:33.224Z,85.12
2022-12-25T06:44:59.721Z,85.25
2022-12-25T06:47:26.113Z,85.04
2022-12-25T06:49:52.530Z,85.16
2022-12-25T06:52:18.913Z,84.62
2022-12-25T06:54:46.697Z,84.95
2022-12-25T06:57:13.091Z,84.76
2022-12-25T06:59:39.519Z,85.34
2022-12-25T07:02:05.976Z,85.35
2022-12-25T07:04:40.501Z,85.06
2022-12-25T07:07:09.447Z,84.67
2022-12-25T07:09:38.579Z,85.36
2022-12-25T07:12:07.624Z,85.10
2022-12-25T07:14:34.396Z,85.14
2022-12-25T07:17:00.891Z,85.29
2022-12-25T07:19:27.357Z,85.06
2022-12-25T07:21:53.755Z,85.07
2022-12-25T07:24:21.485Z,85.56
2022-12-25T07:26:48.966Z,85.11
2022-12-25T07:29:15.470Z,85.15
2022-12-25T07:31:42.015Z,85.24
2022-12-25T07:34:08.767Z,84.57
2022-12-25T07:36:35.159Z,85.23
2022-12-25T07:39:01.619Z,85.89
2022-12-25T07:41:28.003Z,85.63
2022-12-25T07:44:12.684Z,85.91
2022-12-25T07:46:39.087Z,85.23
2022-12-25T07:49:05.515Z,85.17
2022-12-25T07:51:31.965Z,85.39
2022-12-25T07:53:58.463Z,85.83
2022-12-25T07:56:24.993Z,85.74
2022-12-25T07:58:51.414Z,85.16
2022-12-25T08:01:24.069Z,84.96
2022-12-25T08:04:01.789Z,85.39
2022-12-25T08:06:33.345Z,85.34
2022-12-25T08:09:08.891Z,85.50
2022-12-25T08:11:36.220Z,85.00
2022-12-25T08:14:06.458Z,86.07
2022-12-25T08:16:32.918Z,85.67
2022-12-25T08:18:59.705Z,85.22
2022-12-25T08:21:26.115Z,86.04
2022-12-25T08:23:52.541Z,85.79
2022-12-25T08:26:21.950Z,85.98
2022-12-25T08:28:49.483Z,86.09
2022-12-25T08:31:22.316Z,86.23
2022-12-25T08:33:51.722Z,86.76
2022-12-25T08:36:19.175Z,86.94
2022-12-25T08:38:46.084Z,86.92
2022-12-25T08:41:13.626Z,87.17
2022-12-25T08:43:40.538Z,87.70
2022-12-25T08:46:08.082Z,87.43
2022-12-25T08:48:34.763Z,87.17
2022-12-25T08:51:02.455Z,87.53
2022-12-25T08:53:28.879Z,87.21
2022-12-25T08:56:00.966Z,87.34
2022-12-25T08:58:27.988Z,87.65
2022-12-25T09:00:54.898Z,87.79
2022-12-25T09:03:21.786Z,87.50
2022-12-25T09:05:48.225Z,88.01
2022-12-25T09:08:14.668Z,87.51
2022-12-25T09:10:42.237Z,86.63
2022-12-25T09:13:09.749Z,86.82
2022-12-25T09:15:38.711Z,86.40
2022-12-25T09:18:05.675Z,86.50
2022-12-25T09:20:32.593Z,86.62
2022-12-25T09:22:59.057Z,86.71
2022-12-25T09:25:25.476Z,86.16
2022-12-25T09:27:51.897Z,86.65
2022-12-25T09:30:18.392Z,86.20
2022-12-25T09:32:44.794Z,85.95
2022-12-25T09:35:11.389Z,85.67
2022-12-25T09:37:37.804Z,85.37
2022-12-25T09:40:04.713Z,84.76
2022-12-25T09:42:34.337Z,85.17
2022-12-25T09:45:05.643Z,85.47
2022-12-25T09:47:35.470Z,85.23
2022-12-25T09:50:34.111Z,85.65
2022-12-25T09:53:03.544Z,85.48
2022-12-25T09:55:36.061Z,85.45
2022-12-25T09:58:11.403Z,85.67
2022-12-25T10:00:45.433Z,85.33
2022-12-25T10:03:23.713Z,85.50
2022-12-25T10:06:01.914Z,85.13
2022-12-25T10:08:52.589Z,85.18
2022-12-25T10:11:27.787Z,84.78
2022-12-25T10:14:11.595Z,84.42
2022-12-25T10:16:38.041Z,84.29
2022-12-25T10:19:15.542Z,84.49
2022-12-25T10:21:42.278Z,83.84
2022-12-25T10:24:26.769Z,84.45
2022-12-25T10:26:55.317Z,84.93
2022-12-25T10:29:22.378Z,84.46
2022-12-25T10:31:53.262Z,84.57
2022-12-25T10:34:19.731Z,84.95
2022-12-25T10:36:46.870Z,85.01
2022-12-25T10:39:18.105Z,84.83
2022-12-25T10:42:19.815Z,84.71
2022-12-25T10:45:07.930Z,84.41
2022-12-25T10:47:38.961Z,84.20
2022-12-25T10:50:25.452Z,84.04
2022-12-25T10:53:00.766Z,84.12
2022-12-25T10:55:29.543Z,84.20
2022-12-25T10:57:57.794Z,84.10
2022-12-25T11:00:30.304Z,84.33
2022-12-25T11:02:57.577Z,84.20
2022-12-25T11:05:29.846Z,84.56
2022-12-25T11:07:58.497Z,84.39
2022-12-25T11:10:38.338Z,84.37
2022-12-25T11:13:17.185Z,84.76
2022-12-25T11:15:47.388Z,85.01
2022-12-25T11:18:19.603Z,85.33
2022-12-25T11:20:51.990Z,84.90
2022-12-25T11:23:20.559Z,85.15
2022-12-25T11:26:02.537Z,84.89
2022-12-25T11:28:31.351Z,85.64
2022-12-25T11:31:20.736Z,85.53
2022-12-25T11:34:23.758Z,85.61
2022-12-25T11:36:51.609Z,85.80
2022-12-25T11:39:28.429Z,85.75
2022-12-25T11:42:22.692Z,86.55
2022-12-25T11:45:00.580Z,86.18
2022-12-25T11:47:45.611Z,86.68
2022-12-25T11:50:30.796Z,86.42
2022-12-25T11:53:01.711Z,86.21
2022-12-25T11:55:46.150Z,86.65
2022-12-25T11:58:24.811Z,86.65
2022-12-25T12:00:54.107Z,87.15
2022-12-25T12:03:35.846Z,86.12
2022-12-25T12:06:07.286Z,86.58
2022-12-25T12:08:35.247Z,86.83
2022-12-25T12:11:28.871Z,87.00
2022-12-25T12:14:30.949Z,86.61
2022-12-25T12:16:57.499Z,86.87
2022-12-25T12:19:27.223Z,87.12
2022-12-25T12:21:57.110Z,86.89
2022-12-25T12:24:27.900Z,86.83
2022-12-25T12:27:13.180Z,87.24
2022-12-25T12:29:49.932Z,87.39
2022-12-25T12:32:29.081Z,87.27
2022-12-25T12:34:56.725Z,87.38
2022-12-25T12:37:31.163Z,87.65
2022-12-25T12:39:58.424Z,87.11
2022-12-25T12:42:31.311Z,87.33
2022-12-25T12:45:08.485Z,87.53
2022-12-25T12:47:41.640Z,87.69
2022-12-25T12:50:34.916Z,87.40
2022-12-25T12:53:18.440Z,87.52
2022-12-25T12:55:44.857Z,87.08
2022-12-25T12:58:33.431Z,87.56
2022-12-25T13:01:18.853Z,87.33
2022-12-25T13:04:17.920Z,87.65
2022-12-25T13:06:52.840Z,87.48
2022-12-25T13:09:48.798Z,87.25
2022-12-25T13:12:17.011Z,86.98
2022-12-25T13:14:47.969Z,87.77
2022-12-25T13:17:19.145Z,87.51
2022-12-25T13:19:46.393Z,87.97
2022-12-25T13:22:31.869Z,87.97
2022-12-25T13:25:00.933Z,87.84
2022-12-25T13:27:31.729Z,87.69
2022-12-25T13:29:59.355Z,88.72
2022-12-25T13:32:31.585Z,88.17
2022-12-25T13:34:58.950Z,88.43
2022-12-25T13:37:28.620Z,88.18
2022-12-25T13:39:59.027Z,88.04
2022-12-25T13:42:28.490Z,88.58
2022-12-25T13:44:58.421Z,88.23
2022-12-25T13:47:30.065Z,88.87
2022-12-25T13:49:57.320Z,88.52
2022-12-25T13:52:32.118Z,88.82
2022-12-25T13:55:13.002Z,88.55
2022-12-25T13:57:54.738Z,88.40
2022-12-25T14:00:28.006Z,88.90
2022-12-25T14:02:54.940Z,88.70
2022-12-25T14:05:28.870Z,88.57
2022-12-25T14:07:57.869Z,88.26
2022-12-25T14:10:32.255Z,89.09
2022-12-25T14:13:03.410Z,88.89
2022-12-25T14:15:31.957Z,88.82
2022-12-25T14:17:59.378Z,88.52
2022-12-25T14:20:36.071Z,88.67
2022-12-25T14:23:04.492Z,88.23
2022-12-25T14:25:42.749Z,88.81
2022-12-25T14:28:18.983Z,88.99
2022-12-25T14:30:45.712Z,88.61
2022-12-25T14:33:19.580Z,88.48
2022-12-25T14:35:47.825Z,88.98
2022-12-25T14:38:25.717Z,89.06
2022-12-25T14:40:59.279Z,88.69
2022-12-25T14:43:27.581Z,88.94
2022-12-25T14:45:57.515Z,88.88
2022-12-25T14:48:29.773Z,89.23
2022-12-25T14:51:08.826Z,89.65
2022-12-25T14:53:45.897Z,89.24
2022-12-25T14:56:19.565Z,89.24
2022-12-25T14:58:58.311Z,89.63
2022-12-25T15:01:36.935Z,89.83
2022-12-25T15:04:07.660Z,89.51
2022-12-25T15:06:34.112Z,89.93
2022-12-25T15:09:06.644Z,89.53
2022-12-25T15:11:33.050Z,89.99
2022-12-25T15:13:59.451Z,90.10
2022-12-25T15:16:28.729Z,89.35
2022-12-25T15:18:56.002Z,89.49
2022-12-25T15:21:30.939Z,90.05
2022-12-25T15:23:58.939Z,90.00
2022-12-25T15:26:27.286Z,89.95
2022-12-25T15:28:53.891Z,89.84
2022-12-25T15:31:24.942Z,89.90
2022-12-25T15:33:53.558Z,89.37
2022-12-25T15:36:19.966Z,89.54
2022-12-25T15:38:46.470Z,89.87
2022-12-25T15:41:38.012Z,89.53
2022-12-25T15:44:06.368Z,89.98
2022-12-25T15:46:34.118Z,89.99
2022-12-25T15:49:00.982Z,89.42
2022-12-25T15:51:27.372Z,89.85
2022-12-25T15:53:53.830Z,89.57
2022-12-25T15:56:21.339Z,90.05
2022-12-25T15:58:48.817Z,89.55
2022-12-25T16:01:19.585Z,89.88
2022-12-25T16:03:47.018Z,89.92
2022-12-25T16:06:15.941Z,89.87
2022-12-25T16:08:43.271Z,90.04
2022-12-25T16:11:10.099Z,89.84
2022-12-25T16:13:37.174Z,90.30
2022-12-25T16:16:04.996Z,89.83
2022-12-25T16:18:31.466Z,90.03
2022-12-25T16:20:59.070Z,90.05
2022-12-25T16:23:25.700Z,89.86
2022-12-25T16:25:52.089Z,90.46
2022-12-25T16:28:18.511Z,89.96
2022-12-25T16:30:45.037Z,90.16
2022-12-25T16:33:11.742Z,90.37
2022-12-25T16:35:38.639Z,90.43
2022-12-25T16:38:05.477Z,90.57
2022-12-25T16:40:32.118Z,89.89
2022-12-25T16:42:58.597Z,90.22
2022-12-25T16:45:25.022Z,90.56
2022-12-25T16:47:51.439Z,90.38
2022-12-25T16:50:17.937Z,90.33
2022-12-25T16:52:44.379Z,90.40
2022-12-25T16:55:10.887Z,90.71
2022-12-25T16:57:37.415Z,90.76
2022-12-25T17:00:04.564Z,90.85
2022-12-25T17:02:31.165Z,90.85
2022-12-25T17:04:57.704Z,90.85
2022-12-25T17:07:24.134Z,90.84
2022-12-25T17:09:50.541Z,90.88
2022-12-25T17:12:17.315Z,91.15
2022-12-25T17:14:43.722Z,90.64
2022-12-25T17:17:10.174Z,90.57
2022-12-25T17:19:36.683Z,90.82
2022-12-25T17:22:03.131Z,90.91
2022-12-25T17:24:29.907Z,90.41
2022-12-25T17:26:56.427Z,90.81
2022-12-25T17:29:24.616Z,91.21
2022-12-25T17:31:51.353Z,90.83
2022-12-25T17:34:18.293Z,90.82
2022-12-25T17:36:44.756Z,90.91
2022-12-25T17:39:24.241Z,90.65
2022-12-25T17:41:50.959Z,90.77
2022-12-25T17:44:18.499Z,90.78
2022-12-25T17:46:45.069Z,90.92
2022-12-25T17:49:17.583Z,91.02
2022-12-25T17:51:44.538Z,91.04
2022-12-25T17:54:12.125Z,90.57
2022-12-25T17:56:38.760Z,90.61
2022-12-25T17:59:08.207Z,90.77
2022-12-25T18:01:37.600Z,90.96
2022-12-25T18:04:06.146Z,91.10
2022-12-25T18:06:34.780Z,90.61
2022-12-25T18:09:01.584Z,90.67
2022-12-25T18:11:33.034Z,90.52
2022-12-25T18:14:04.450Z,90.58
2022-12-25T18:16:34.641Z,90.82
2022-12-25T18:19:03.875Z,91.00
2022-12-25T18:21:30.759Z,90.74
2022-12-25T18:24:00.222Z,90.82
2022-12-25T18:26:29.814Z,91.13
2022-12-25T18:28:59.304Z,90.90
2022-12-25T18:31:27.382Z,90.75
2022-12-25T18:33:54.327Z,91.16
2022-12-25T18:36:25.972Z,90.83
2022-12-25T18:38:53.331Z,91.15
2022-12-25T18:41:21.091Z,90.75
2022-12-25T18:43:52.712Z,91.36
2022-12-25T18:46:24.283Z,90.79
2022-12-25T18:48:51.767Z,90.99
2022-12-25T18:51:18.631Z,90.83
2022-12-25T18:53:48.054Z,91.43
2022-12-25T18:56:17.377Z,91.42
2022-12-25T18:58:45.388Z,90.60
2022-12-25T19:01:15.374Z,90.74
2022-12-25T19:03:41.877Z,90.79
2022-12-25T19:06:08.634Z,91.17
2022-12-25T19:08:35.588Z,90.98
2022-12-25T19:11:10.654Z,90.85
2022-12-25T19:13:40.564Z,90.93
2022-12-25T19:16:10.353Z,91.11
2022-12-25T19:18:43.564Z,90.74
2022-12-25T19:21:13.368Z,90.98
2022-12-25T19:23:40.418Z,90.80
2022-12-25T19:26:09.481Z,91.16
2022-12-25T19:28:36.603Z,90.67
2022-12-25T19:31:03.989Z,91.20
2022-12-25T19:33:31.806Z,91.15
2022-12-25T19:36:07.208Z,91.31
2022-12-25T19:38:34.030Z,91.05
2022-12-25T19:41:07.995Z,91.10
2022-12-25T19:43:39.056Z,90.66
2022-12-25T19:46:07.345Z,90.69
2022-12-25T19:51:33.370Z,91.01
2022-12-25T19:54:00.716Z,90.56
2022-12-25T19:56:29.528Z,90.67
2022-12-25T19:58:56.815Z,90.67
2022-12-25T20:01:25.969Z,90.87
2022-12-25T20:03:53.011Z,90.63
2022-12-25T20:06:26.061Z,90.46
2022-12-25T20:08:54.724Z,90.56
2022-12-25T20:11:23.169Z,90.26
2022-12-25T20:13:49.890Z,89.40
2022-12-25T20:16:16.523Z,89.34
2022-12-25T20:18:43.248Z,89.02
2022-12-25T20:21:19.095Z,88.41
2022-12-25T20:23:49.373Z,87.38
2022-12-25T20:26:17.904Z,86.72
2022-12-25T20:28:44.632Z,86.45
2022-12-25T20:31:18.173Z,85.96
2022-12-25T20:33:44.683Z,84.69
2022-12-25T20:36:12.697Z,83.95
2022-12-25T20:38:39.615Z,83.70
2022-12-25T20:41:31.185Z,83.81
2022-12-25T20:43:58.216Z,83.40
2022-12-25T20:46:25.974Z,82.12
2022-12-25T20:48:53.562Z,82.09
2022-12-25T20:51:22.697Z,82.54
2022-12-25T20:53:49.966Z,81.71
2022-12-25T20:56:19.867Z,81.41
2022-12-25T20:58:46.462Z,82.11
2022-12-25T21:01:17.528Z,81.58
2022-12-25T21:03:45.287Z,82.06
2022-12-25T21:06:12.421Z,81.98
2022-12-25T21:08:40.818Z,83.05
2022-12-25T21:11:07.741Z,83.49
2022-12-25T21:13:36.932Z,82.99
2022-12-25T21:16:08.910Z,82.72
2022-12-25T21:18:35.343Z,82.27
2022-12-25T21:21:05.477Z,81.33
2022-12-25T21:23:36.643Z,82.05
2022-12-25T21:26:15.502Z,82.07
2022-12-25T21:28:42.231Z,81.36
2022-12-25T21:31:09.443Z,82.08
2022-12-25T21:33:54.772Z,81.60
2022-12-25T21:36:28.295Z,80.49
2022-12-25T21:38:57.356Z,81.54
2022-12-25T21:41:24.140Z,82.49
2022-12-25T21:43:51.006Z,83.16
2022-12-25T21:46:18.130Z,83.53
2022-12-25T21:48:44.615Z,83.71
2022-12-25T21:51:36.363Z,84.55
2022-12-25T21:54:04.111Z,84.24
2022-12-25T21:56:32.179Z,84.98
2022-12-25T21:59:00.276Z,85.22
2022-12-25T22:01:28.018Z,85.09
2022-12-25T22:03:54.927Z,85.01
2022-12-25T22:06:40.142Z,85.16
2022-12-25T22:09:09.361Z,85.76
2022-12-25T22:11:54.498Z,85.84
2022-12-25T22:14:52.511Z,85.74
2022-12-25T22:17:47.553Z,85.74
2022-12-25T22:20:20.357Z,85.58
2022-12-25T22:22:47.126Z,85.61
2022-12-25T22:25:15.092Z,85.02
2022-12-25T22:27:43.516Z,85.76
2022-12-25T22:30:16.792Z,86.04
2022-12-25T22:32:43.237Z,86.06
2022-12-25T22:35:12.141Z,85.93
2022-12-25T22:37:39.355Z,85.73
2022-12-25T22:40:07.456Z,85.95
2022-12-25T22:42:33.937Z,85.01
2022-12-25T22:45:00.479Z,85.79
2022-12-25T22:47:26.888Z,84.93
2022-12-25T22:49:53.358Z,85.42
2022-12-25T22:52:19.902Z,84.77
2022-12-25T22:54:46.337Z,84.09
2022-12-25T22:57:12.750Z,83.56
2022-12-25T22:59:39.162Z,83.68
2022-12-25T23:02:05.646Z,82.84
2022-12-25T23:04:32.286Z,82.80
2022-12-25T23:06:58.707Z,82.60
2022-12-25T23:09:27.882Z,82.13
2022-12-25T23:11:58.712Z,80.74
2022-12-25T23:14:38.768Z,80.93
2022-12-25T23:17:31.133Z,81.20
2022-12-25T23:20:18.191Z,80.45
2022-12-25T23:23:04.270Z,80.87
2022-12-25T23:25:49.196Z,80.48
2022-12-25T23:28:35.720Z,80.63
2022-12-25T23:31:02.251Z,81.28
2022-12-25T23:33:28.777Z,81.14
2022-12-25T23:35:55.331Z,81.22
2022-12-25T23:38:22.052Z,80.18
2022-12-25T23:40:48.477Z,80.31
2022-12-25T23:43:14.934Z,81.06
2022-12-25T23:45:41.390Z,80.52
2022-12-25T23:48:08.517Z,80.65
2022-12-25T23:50:34.963Z,80.61
2022-12-25T23:53:01.392Z,80.73
2022-12-25T23:55:27.830Z,80.66
2022-12-25T23:57:54.257Z,79.91
